Time;durP1;ratioP1;P1;durP2;ratioP2;P2;SDS_P1;SDS_P2;PMS_P1;PMS_P2;Temp;Humidity;BMP_temperature;BMP_pressure;BME280_temperature;BME280_humidity;BME280_pressure;Samples;Min_cycle;Max_cycle;Signal;HPM_P1;HPM_P2
2021/07/24 00:00:25;;;;;;;18.30;11.10;;;;;;;22.45;57.12;99243.72;2196145;40;20088;-87
2021/07/24 00:01:57;;;;;;;17.55;9.73;;;;;;;22.42;57.42;99244.19;2183169;41;20040;-89
2021/07/24 00:03:28;;;;;;;13.05;9.38;;;;;;;22.38;57.30;99235.66;2195300;40;20188;-87
2021/07/24 00:04:59;;;;;;;15.23;9.35;;;;;;;22.37;57.41;99228.56;2195913;40;20047;-88
2021/07/24 00:06:31;;;;;;;15.65;10.98;;;;;;;22.34;57.60;99228.22;2196721;40;20039;-88
2021/07/24 00:08:02;;;;;;;14.60;10.35;;;;;;;22.28;57.41;99230.00;2188819;40;20046;-89
2021/07/24 00:09:36;;;;;;;11.82;9.50;;;;;;;22.24;57.97;99218.78;2196673;40;20047;-87
2021/07/24 00:11:09;;;;;;;14.15;9.90;;;;;;;22.23;57.94;99227.19;2196009;40;20665;-87
2021/07/24 00:12:41;;;;;;;19.35;10.68;;;;;;;22.23;58.14;99224.47;2196201;40;20504;-89
2021/07/24 00:14:12;;;;;;;10.45;8.63;;;;;;;22.16;58.02;99211.00;2182711;40;20048;-88
2021/07/24 00:15:43;;;;;;;15.10;8.75;;;;;;;22.13;58.36;99211.47;2183565;41;20051;-88
2021/07/24 00:17:15;;;;;;;16.77;9.98;;;;;;;22.11;58.21;99211.72;2183558;41;20024;-88
2021/07/24 00:18:47;;;;;;;13.93;9.73;;;;;;;22.10;58.20;99206.53;2183941;40;20024;-88
2021/07/24 00:20:19;;;;;;;20.50;11.07;;;;;;;22.05;58.40;99199.09;2184452;41;20032;-89
2021/07/24 00:21:51;;;;;;;12.90;10.30;;;;;;;21.90;58.64;99196.88;2193115;40;20195;-87
2021/07/24 00:23:23;;;;;;;13.95;9.35;;;;;;;21.82;59.12;99197.25;2195627;40;20047;-87
2021/07/24 00:24:55;;;;;;;14.68;10.43;;;;;;;21.83;59.21;99192.63;2195652;40;20047;-87
2021/07/24 00:26:27;;;;;;;13.57;9.43;;;;;;;21.85;59.45;99194.03;2195548;40;20112;-87
2021/07/24 00:27:58;;;;;;;12.40;9.38;;;;;;;21.88;59.05;99198.16;2182367;41;20168;-88
2021/07/24 00:29:30;;;;;;;18.58;10.77;;;;;;;21.82;59.24;99208.16;2183288;41;20036;-88
2021/07/24 00:31:00;;;;;;;17.88;10.45;;;;;;;21.77;59.60;99197.13;2194614;40;20039;-89
2021/07/24 00:32:32;;;;;;;13.07;9.38;;;;;;;21.78;59.42;99199.59;2196502;40;20020;-88
2021/07/24 00:34:04;;;;;;;16.40;10.32;;;;;;;21.73;59.56;99196.78;2196304;40;20082;-88
2021/07/24 00:35:36;;;;;;;16.77;11.40;;;;;;;21.68;59.72;99204.81;2196464;40;20473;-89
2021/07/24 00:37:08;;;;;;;13.82;10.75;;;;;;;21.57;60.19;99198.31;2196595;40;20040;-88
2021/07/24 00:38:41;;;;;;;13.93;9.77;;;;;;;21.56;60.11;99195.84;2196544;40;20482;-89
2021/07/24 00:40:16;;;;;;;13.90;10.68;;;;;;;21.51;60.32;99196.56;2196677;40;20038;-89
2021/07/24 00:41:52;;;;;;;14.85;10.23;;;;;;;21.51;60.52;99210.16;2196918;40;20099;-88
2021/07/24 00:43:27;;;;;;;18.15;9.57;;;;;;;21.47;60.44;99201.66;2196789;40;20443;-88
2021/07/24 00:45:02;;;;;;;14.93;9.52;;;;;;;21.49;60.14;99201.41;2196618;40;20039;-90
2021/07/24 00:46:37;;;;;;;14.85;10.25;;;;;;;21.50;60.27;99194.91;2196483;40;20353;-88
2021/07/24 00:48:10;;;;;;;16.42;10.85;;;;;;;21.49;60.22;99195.97;2196787;40;20035;-90
2021/07/24 00:49:43;;;;;;;16.00;9.82;;;;;;;21.41;60.45;99193.59;2203193;40;20046;-88
2021/07/24 00:51:29;;;;;;;15.98;10.90;;;;;;;21.37;61.06;99197.84;2202944;40;20027;-87
2021/07/24 00:53:10;;;;;;;14.88;9.57;;;;;;;21.27;61.04;99198.44;2196702;40;20050;-89
2021/07/24 00:54:44;;;;;;;19.17;10.73;;;;;;;21.25;61.23;99193.25;2197065;40;20055;-87
2021/07/24 00:56:18;;;;;;;15.70;9.88;;;;;;;21.27;61.25;99193.81;2196639;40;20035;-86
2021/07/24 00:57:50;;;;;;;13.10;9.52;;;;;;;21.31;61.05;99197.75;2196719;40;20016;-88
2021/07/24 00:59:21;;;;;;;12.18;8.25;;;;;;;21.37;60.93;99201.41;2196431;40;20039;-88
2021/07/24 01:00:53;;;;;;;16.67;9.18;;;;;;;21.43;60.88;99199.63;2196495;40;20400;-89
2021/07/24 01:02:25;;;;;;;14.77;9.82;;;;;;;21.44;60.98;99206.72;2196964;40;20120;-88
2021/07/24 01:03:57;;;;;;;13.32;9.90;;;;;;;21.41;60.85;99199.03;2197019;40;20064;-87
2021/07/24 01:05:29;;;;;;;13.55;10.30;;;;;;;21.40;61.15;99191.94;2196928;40;20031;-88
2021/07/24 01:07:06;;;;;;;13.98;9.90;;;;;;;21.41;60.90;99180.00;2197277;40;20028;-89
2021/07/24 01:08:37;;;;;;;13.82;10.82;;;;;;;21.36;61.32;99188.88;2197359;40;20031;-89
2021/07/24 01:10:10;;;;;;;14.45;9.98;;;;;;;21.33;61.23;99182.03;2196925;40;20055;-89
2021/07/24 01:11:43;;;;;;;15.48;10.43;;;;;;;21.34;61.26;99186.41;2184568;40;20044;-87
2021/07/24 01:13:16;;;;;;;18.35;10.25;;;;;;;21.29;61.49;99186.28;2184666;40;20032;-89
2021/07/24 01:14:48;;;;;;;14.55;10.02;;;;;;;21.24;61.73;99186.16;2172687;40;20770;-89
2021/07/24 01:16:20;;;;;;;13.75;10.40;;;;;;;21.14;61.57;99185.94;2172817;40;20029;-89
2021/07/24 01:17:53;;;;;;;13.43;10.57;;;;;;;21.14;61.75;99181.31;2172889;40;20036;-90
2021/07/24 01:19:25;;;;;;;17.45;11.25;;;;;;;21.16;61.76;99178.38;2172720;40;20033;-87
2021/07/24 01:21:01;;;;;;;14.60;11.52;;;;;;;21.17;61.58;99172.69;2166732;41;20612;-90
2021/07/24 01:22:34;;;;;;;14.55;11.27;;;;;;;21.16;61.57;99175.66;2178884;40;20024;-88
2021/07/24 01:24:06;;;;;;;16.70;10.98;;;;;;;21.17;61.38;99177.28;2166636;41;20154;-89
2021/07/24 01:25:43;;;;;;;12.82;10.50;;;;;;;21.17;61.37;99169.97;2166690;41;20034;-89
2021/07/24 01:27:14;;;;;;;13.98;10.38;;;;;;;21.17;61.35;99178.13;2160913;41;20038;-89
2021/07/24 01:28:45;;;;;;;14.45;10.07;;;;;;;21.18;61.79;99178.94;2154975;41;20037;-88
2021/07/24 01:30:17;;;;;;;13.93;10.18;;;;;;;21.18;61.28;99179.78;2154480;41;20701;-88
2021/07/24 01:31:50;;;;;;;14.25;10.48;;;;;;;21.16;61.39;99178.38;2160692;41;20033;-90
2021/07/24 01:33:22;;;;;;;18.20;11.70;;;;;;;20.98;62.01;99174.66;2167445;40;20029;-89
2021/07/24 01:34:53;;;;;;;14.90;11.38;;;;;;;20.92;62.08;99170.19;2177239;40;20025;-89
2021/07/24 01:36:27;;;;;;;16.73;11.27;;;;;;;20.84;62.33;99170.53;2190488;40;20028;-89
2021/07/24 01:38:00;;;;;;;14.20;9.77;;;;;;;20.88;62.46;99171.69;2184427;40;20081;-89
2021/07/24 01:39:32;;;;;;;14.45;10.07;;;;;;;20.91;62.21;99173.97;2196932;40;20050;-92
2021/07/24 01:41:04;;;;;;;18.67;10.48;;;;;;;20.93;62.04;99176.44;2198065;40;20043;-90
2021/07/24 01:42:36;;;;;;;15.27;11.07;;;;;;;20.92;62.16;99169.38;2204308;40;20083;-89
2021/07/24 01:44:08;;;;;;;15.00;11.18;;;;;;;20.87;62.33;99164.63;2191361;40;20040;-88
2021/07/24 01:45:41;;;;;;;13.52;10.32;;;;;;;20.84;62.20;99165.09;2197656;40;20027;-88
2021/07/24 01:47:12;;;;;;;14.40;11.13;;;;;;;20.87;62.36;99170.06;2197286;40;20549;-89
2021/07/24 01:48:45;;;;;;;14.80;10.27;;;;;;;20.90;61.88;99177.72;2197503;40;20030;-88
2021/07/24 01:54:18;;;;;;;17.08;11.68;;;;;;;20.93;61.76;99209.88;2197923;40;20515;-87
2021/07/24 01:55:53;;;;;;;15.48;11.07;;;;;;;20.79;62.15;99209.25;2203489;40;20039;-85
2021/07/24 01:57:24;;;;;;;15.27;10.88;;;;;;;20.69;62.42;99209.78;2207818;40;20026;-83
2021/07/24 01:58:56;;;;;;;14.88;10.50;;;;;;;20.70;62.56;99203.28;2205198;40;20109;-82
2021/07/24 02:00:29;;;;;;;16.92;11.43;;;;;;;20.73;62.36;99204.72;2209312;40;20034;-84
2021/07/24 02:02:02;;;;;;;14.88;11.45;;;;;;;20.65;62.88;99205.03;2206866;40;20023;-83
2021/07/24 02:03:36;;;;;;;15.23;11.60;;;;;;;20.56;63.24;99199.13;2203460;40;20054;-82
2021/07/24 02:05:15;;;;;;;15.10;11.02;;;;;;;20.50;63.33;99200.06;2204328;40;20059;-83
2021/07/24 02:06:47;;;;;;;21.88;11.13;;;;;;;20.57;63.02;99200.78;2207249;40;20065;-83
2021/07/24 02:08:20;;;;;;;16.33;11.40;;;;;;;20.61;62.87;99203.84;2204987;40;20056;-82
2021/07/24 02:09:53;;;;;;;17.52;10.60;;;;;;;20.63;62.96;99205.28;2202875;40;20027;-83
2021/07/24 02:11:25;;;;;;;13.90;10.70;;;;;;;20.64;62.84;99204.22;2202601;40;20059;-82
2021/07/24 02:12:56;;;;;;;13.02;10.77;;;;;;;20.62;62.88;99200.09;2203113;40;20378;-83
2021/07/24 02:14:33;;;;;;;15.10;10.20;;;;;;;20.58;62.65;99194.28;2202634;40;20188;-83
2021/07/24 02:16:06;;;;;;;14.65;11.27;;;;;;;20.55;62.65;99194.75;2204434;40;20022;-82
2021/07/24 02:17:37;;;;;;;13.55;10.50;;;;;;;20.56;62.71;99210.78;2196457;40;20019;-83
2021/07/24 02:19:11;;;;;;;13.18;9.90;;;;;;;20.58;62.94;99202.44;2200089;40;20139;-83
2021/07/24 02:20:45;;;;;;;14.45;10.35;;;;;;;20.57;62.51;99198.88;2202629;40;20039;-82
2021/07/24 02:22:17;;;;;;;15.65;10.27;;;;;;;20.55;62.58;99205.59;2203599;40;20019;-83
2021/07/24 02:23:49;;;;;;;13.95;11.20;;;;;;;20.53;62.75;99195.00;2202744;40;20039;-80
2021/07/24 02:25:21;;;;;;;13.75;10.95;;;;;;;20.47;63.19;99190.47;2200578;40;20058;-81
2021/07/24 02:26:53;;;;;;;13.38;11.25;;;;;;;20.49;62.79;99193.78;2202236;40;20031;-81
2021/07/24 02:28:24;;;;;;;14.50;10.25;;;;;;;20.48;63.03;99194.84;2200530;40;20056;-83
2021/07/24 02:29:55;;;;;;;14.02;10.52;;;;;;;20.50;62.84;99191.91;2200184;40;20066;-83
2021/07/24 02:31:27;;;;;;;15.70;10.57;;;;;;;20.52;62.92;99198.75;2206515;40;20053;-81
2021/07/24 02:32:59;;;;;;;16.77;12.27;;;;;;;20.53;63.16;99205.00;2202666;40;20054;-84
2021/07/24 02:34:30;;;;;;;14.70;11.27;;;;;;;20.44;63.23;99204.50;2204337;40;20026;-82
2021/07/24 02:36:01;;;;;;;14.40;10.60;;;;;;;20.39;63.36;99199.78;2204874;40;20069;-81
2021/07/24 02:37:32;;;;;;;15.10;11.40;;;;;;;20.38;63.88;99197.28;2200525;40;20320;-82
2021/07/24 02:39:04;;;;;;;16.58;10.93;;;;;;;20.34;64.02;99196.09;2200560;40;20039;-82
2021/07/24 02:40:39;;;;;;;16.27;12.25;;;;;;;20.33;64.11;99195.25;2199820;40;20038;-81
2021/07/24 02:42:11;;;;;;;14.82;11.23;;;;;;;20.33;64.24;99199.88;2194574;40;20095;-81
2021/07/24 02:43:43;;;;;;;15.98;10.65;;;;;;;20.35;64.23;99187.72;2198897;40;20364;-82
2021/07/24 02:45:15;;;;;;;15.30;10.88;;;;;;;20.37;64.09;99185.59;2200859;40;20031;-80
2021/07/24 02:46:47;;;;;;;16.17;11.63;;;;;;;20.35;64.31;99176.84;2200995;40;20035;-83
2021/07/24 02:48:18;;;;;;;15.85;12.32;;;;;;;20.29;64.68;99182.38;2202398;40;20057;-80
2021/07/24 02:49:49;;;;;;;16.00;12.10;;;;;;;20.24;64.58;99180.34;2202516;40;20031;-82
2021/07/24 02:51:21;;;;;;;13.68;10.27;;;;;;;20.23;64.79;99173.25;2201686;40;20035;-81
2021/07/24 02:52:51;;;;;;;14.95;10.90;;;;;;;20.26;64.92;99189.09;2202585;40;20054;-82
2021/07/24 02:54:23;;;;;;;15.70;10.80;;;;;;;20.22;64.84;99182.44;2200713;40;20037;-84
2021/07/24 02:55:56;;;;;;;15.02;10.50;;;;;;;20.25;64.82;99182.00;2200861;40;20042;-81
2021/07/24 02:57:28;;;;;;;13.93;10.48;;;;;;;20.29;64.95;99185.09;2201996;40;20443;-82
2021/07/24 02:58:59;;;;;;;15.40;11.13;;;;;;;20.30;64.90;99184.88;2202784;40;20031;-83
2021/07/24 03:00:31;;;;;;;15.13;11.65;;;;;;;20.30;64.88;99175.88;2203314;40;20042;-82
2021/07/24 03:02:02;;;;;;;15.30;11.68;;;;;;;20.27;65.11;99160.91;2203360;40;20031;-82
2021/07/24 03:03:34;;;;;;;19.27;9.93;;;;;;;20.26;65.13;99170.91;2202629;40;20054;-82
2021/07/24 03:05:06;;;;;;;18.45;10.70;;;;;;;20.29;65.36;99174.22;2202965;40;20058;-82
2021/07/24 03:06:38;;;;;;;12.88;9.93;;;;;;;20.26;65.04;99170.09;2202818;40;20031;-81
2021/07/24 03:08:10;;;;;;;14.90;11.48;;;;;;;20.29;65.13;99166.94;2203416;40;20027;-83
2021/07/24 03:09:42;;;;;;;13.43;10.20;;;;;;;20.27;65.28;99163.63;2202708;40;20055;-82
2021/07/24 03:11:14;;;;;;;15.02;11.50;;;;;;;20.30;65.05;99162.31;2201632;40;20042;-83
2021/07/24 03:12:45;;;;;;;17.40;10.68;;;;;;;20.26;65.20;99168.19;2203731;40;20031;-83
2021/07/24 03:14:16;;;;;;;16.00;11.45;;;;;;;20.27;65.26;99163.63;2209196;40;20053;-80
2021/07/24 03:15:48;;;;;;;14.95;11.73;;;;;;;20.19;65.44;99175.59;2203829;40;20027;-81
2021/07/24 03:17:20;;;;;;;15.63;10.70;;;;;;;20.16;65.65;99177.94;2203617;40;20494;-82
2021/07/24 03:18:52;;;;;;;17.08;11.55;;;;;;;20.16;65.85;99173.38;2206725;40;20035;-80
2021/07/24 03:20:24;;;;;;;17.25;12.15;;;;;;;20.14;65.98;99183.63;2203620;40;20034;-81
2021/07/24 03:21:55;;;;;;;15.35;11.68;;;;;;;20.09;66.19;99189.72;2203592;40;20070;-82
2021/07/24 03:23:27;;;;;;;16.50;11.55;;;;;;;19.97;66.85;99182.59;2203193;40;20027;-83
2021/07/24 03:25:00;;;;;;;15.85;11.65;;;;;;;19.81;67.17;99184.81;2203470;40;20035;-82
2021/07/24 03:26:32;;;;;;;24.92;13.43;;;;;;;19.67;67.89;99184.13;2202892;40;20034;-82
2021/07/24 03:28:04;;;;;;;15.77;12.70;;;;;;;19.53;68.45;99188.06;2203763;40;20062;-83
2021/07/24 03:29:36;;;;;;;16.55;12.20;;;;;;;19.43;68.58;99188.56;2203525;40;20038;-83
2021/07/24 03:31:07;;;;;;;14.73;10.82;;;;;;;19.31;69.09;99191.19;2203151;40;20050;-84
2021/07/24 03:32:39;;;;;;;14.05;11.27;;;;;;;19.26;69.29;99186.44;2203112;40;20507;-83
2021/07/24 03:34:10;;;;;;;14.15;10.50;;;;;;;19.26;69.01;99183.72;2208655;40;20094;-84
2021/07/24 03:35:41;;;;;;;18.02;12.15;;;;;;;19.35;68.70;99184.28;2203426;40;20027;-81
2021/07/24 03:37:13;;;;;;;14.50;11.13;;;;;;;19.40;68.55;99181.72;2207205;40;20030;-84
2021/07/24 03:38:44;;;;;;;15.13;12.00;;;;;;;19.43;68.39;99181.28;2208386;40;20034;-82
2021/07/24 03:40:16;;;;;;;15.77;12.27;;;;;;;19.33;68.33;99187.19;2202896;40;20034;-84
2021/07/24 03:41:49;;;;;;;25.92;12.15;;;;;;;19.23;68.90;99181.44;2202718;40;20031;-83
2021/07/24 03:43:20;;;;;;;16.45;11.85;;;;;;;19.18;68.75;99189.41;2203245;40;20051;-82
2021/07/24 03:44:51;;;;;;;18.42;11.93;;;;;;;19.24;68.90;99183.09;2202927;40;20046;-83
2021/07/24 03:46:24;;;;;;;19.77;13.23;;;;;;;19.21;68.68;99183.56;2202533;40;20038;-83
2021/07/24 03:47:56;;;;;;;18.23;13.05;;;;;;;19.13;68.86;99184.66;2206427;40;20189;-83
2021/07/24 03:49:28;;;;;;;15.40;11.85;;;;;;;19.06;69.16;99192.03;2207857;40;21887;-83
2021/07/24 03:50:59;;;;;;;18.60;13.13;;;;;;;19.04;69.56;99190.56;2203672;40;20045;-81
2021/07/24 03:52:30;;;;;;;18.10;12.13;;;;;;;19.09;69.36;99191.56;2203364;40;20031;-84
2021/07/24 03:54:02;;;;;;;14.65;11.38;;;;;;;19.12;69.43;99191.13;2204844;40;20038;-83
2021/07/24 03:55:34;;;;;;;18.13;12.68;;;;;;;19.09;69.14;99196.97;2209316;40;20030;-85
2021/07/24 03:57:07;;;;;;;16.75;12.95;;;;;;;19.00;69.41;99198.31;2205673;40;20041;-85
2021/07/24 03:58:38;;;;;;;18.33;13.65;;;;;;;19.00;69.66;99198.31;2209438;40;20049;-83
2021/07/24 04:00:10;;;;;;;16.77;12.45;;;;;;;19.00;69.37;99198.31;2207097;40;20038;-84
2021/07/24 04:01:43;;;;;;;18.00;12.90;;;;;;;19.01;69.30;99199.97;2201912;40;20046;-84
2021/07/24 04:03:15;;;;;;;14.88;12.27;;;;;;;19.04;69.46;99210.38;2203123;40;20058;-84
2021/07/24 04:04:50;;;;;;;15.95;12.32;;;;;;;19.04;69.13;99210.38;2200959;40;20031;-84
2021/07/24 04:06:24;;;;;;;18.42;13.00;;;;;;;19.04;69.42;99215.78;2203526;40;20042;-86
2021/07/24 04:07:55;;;;;;;17.20;12.95;;;;;;;19.05;69.58;99216.59;2205598;40;20038;-83
2021/07/24 04:09:28;;;;;;;18.27;13.07;;;;;;;19.08;69.33;99219.69;2208449;40;20057;-85
2021/07/24 04:10:59;;;;;;;16.95;12.48;;;;;;;19.06;69.59;99220.97;2199988;40;20227;-83
2021/07/24 04:12:32;;;;;;;20.05;11.93;;;;;;;19.06;69.60;99215.56;2207604;40;20050;-82
2021/07/24 04:14:04;;;;;;;15.32;10.93;;;;;;;19.08;69.51;99211.56;2208314;40;20038;-81
2021/07/24 04:15:37;;;;;;;18.65;12.90;;;;;;;19.15;68.96;99214.22;2202807;40;20038;-83
2021/07/24 04:17:09;;;;;;;17.10;13.02;;;;;;;19.15;68.83;99206.09;2204922;40;20038;-81
2021/07/24 04:18:40;;;;;;;15.30;12.32;;;;;;;19.19;68.82;99212.75;2202663;40;20066;-81
2021/07/24 04:20:21;;;;;;;17.23;12.48;;;;;;;19.23;68.72;99216.66;2202979;40;20045;-83
2021/07/24 04:21:54;;;;;;;16.52;11.85;;;;;;;19.28;68.78;99216.84;2204295;40;20085;-85
2021/07/24 04:23:25;;;;;;;15.88;11.45;;;;;;;19.42;68.39;99233.81;2203087;40;20027;-84
2021/07/24 04:24:57;;;;;;;14.52;11.88;;;;;;;19.54;68.14;99227.66;2207906;40;20054;-84
2021/07/24 04:26:32;;;;;;;19.23;12.02;;;;;;;19.61;67.88;99231.13;2209144;40;20027;-83
2021/07/24 04:28:05;;;;;;;17.70;11.95;;;;;;;19.63;67.33;99221.72;2207619;40;20124;-84
2021/07/24 04:29:37;;;;;;;16.73;11.88;;;;;;;19.66;67.34;99217.72;2202433;40;20023;-85
2021/07/24 04:31:12;;;;;;;15.15;10.82;;;;;;;19.68;67.19;99210.19;2203164;40;20069;-84
2021/07/24 04:32:43;;;;;;;19.55;12.60;;;;;;;19.64;67.63;99203.56;2201855;40;20027;-84
2021/07/24 04:34:15;;;;;;;24.27;12.93;;;;;;;19.55;68.06;99194.09;2202127;40;20609;-82
2021/07/24 04:35:48;;;;;;;22.08;13.00;;;;;;;19.49;68.10;99195.81;2202396;40;20047;-85
2021/07/24 04:37:18;;;;;;;18.85;13.23;;;;;;;19.48;68.23;99200.38;2202176;40;20038;-82
2021/07/24 04:38:50;;;;;;;19.98;13.57;;;;;;;19.55;68.43;99199.50;2203115;40;20139;-82
2021/07/24 04:40:22;;;;;;;16.45;11.82;;;;;;;19.64;67.79;99209.00;2202913;40;20274;-87
2021/07/24 04:41:53;;;;;;;18.77;13.10;;;;;;;19.69;68.04;99227.31;2204997;40;20038;-82
2021/07/24 04:43:26;;;;;;;19.75;13.85;;;;;;;19.70;67.83;99240.63;2204335;40;20046;-84
2021/07/24 04:44:57;;;;;;;18.75;12.40;;;;;;;19.68;67.82;99263.59;2202553;40;20030;-83
2021/07/24 04:46:28;;;;;;;19.90;12.68;;;;;;;19.64;67.93;99265.94;2201116;40;20039;-84
2021/07/24 04:48:00;;;;;;;17.98;13.25;;;;;;;19.61;68.04;99267.19;2203721;40;20038;-82
2021/07/24 04:49:33;;;;;;;15.93;10.85;;;;;;;19.63;68.04;99266.97;2203792;40;20057;-81
2021/07/24 04:51:04;;;;;;;16.75;12.02;;;;;;;19.68;67.68;99269.84;2192076;40;20117;-83
2021/07/24 04:52:37;;;;;;;14.32;10.02;;;;;;;19.72;67.72;99260.22;2194676;40;20043;-84
2021/07/24 04:54:09;;;;;;;16.83;10.88;;;;;;;19.84;67.31;99263.00;2194511;40;20038;-84
2021/07/24 04:55:41;;;;;;;16.10;10.68;;;;;;;19.90;67.23;99250.47;2197208;40;20046;-86
2021/07/24 04:57:13;;;;;;;14.15;10.90;;;;;;;19.97;66.86;99255.81;2209339;40;20039;-85
2021/07/24 04:58:47;;;;;;;16.15;10.75;;;;;;;20.04;66.56;99257.38;2208295;40;20026;-84
2021/07/24 05:00:19;;;;;;;14.38;10.23;;;;;;;20.09;66.41;99252.13;2205322;40;20041;-83
2021/07/24 05:01:50;;;;;;;18.75;12.07;;;;;;;20.13;66.37;99249.78;2200605;40;20035;-85
2021/07/24 05:03:22;;;;;;;14.88;11.50;;;;;;;20.07;66.45;99248.81;2202504;40;20054;-85
2021/07/24 05:04:54;;;;;;;15.27;10.65;;;;;;;20.11;66.56;99257.31;2201170;40;20035;-83
2021/07/24 05:06:26;;;;;;;16.00;11.57;;;;;;;20.14;66.58;99264.16;2198770;40;20524;-82
2021/07/24 05:07:58;;;;;;;16.42;11.50;;;;;;;20.18;66.75;99270.81;2198645;40;20207;-85
2021/07/24 05:09:30;;;;;;;16.48;11.15;;;;;;;20.09;66.61;99281.97;2199008;40;20035;-83
2021/07/24 05:11:02;;;;;;;16.73;12.18;;;;;;;20.03;66.86;99293.69;2193195;40;20043;-84
2021/07/24 05:12:34;;;;;;;21.88;13.60;;;;;;;19.95;67.31;99299.41;2193310;40;20035;-84
2021/07/24 05:14:07;;;;;;;21.65;14.82;;;;;;;19.85;67.53;99307.22;2191795;40;20031;-85
2021/07/24 05:15:39;;;;;;;17.75;12.90;;;;;;;19.78;67.75;99307.31;2191119;40;20120;-81
2021/07/24 05:17:11;;;;;;;18.23;13.25;;;;;;;19.74;68.63;99295.22;2190607;40;20047;-83
2021/07/24 05:18:43;;;;;;;18.38;11.45;;;;;;;19.66;68.89;99290.91;2190331;40;20126;-81
2021/07/24 05:20:14;;;;;;;17.15;12.15;;;;;;;19.69;68.93;99285.06;2190217;40;20031;-82
2021/07/24 05:21:45;;;;;;;16.02;11.05;;;;;;;19.79;68.74;99288.09;2201186;40;20355;-82
2021/07/24 05:23:17;;;;;;;15.43;10.77;;;;;;;19.88;68.75;99275.09;2208120;40;20039;-83
2021/07/24 05:24:48;;;;;;;14.75;11.55;;;;;;;19.94;68.68;99267.94;2207290;40;20047;-83
2021/07/24 05:26:20;;;;;;;16.08;11.68;;;;;;;20.01;68.34;99267.84;2200989;40;20035;-85
2021/07/24 05:27:52;;;;;;;16.90;12.73;;;;;;;20.03;67.73;99261.16;2198176;40;20039;-80
2021/07/24 05:29:24;;;;;;;19.65;11.55;;;;;;;20.03;67.36;99255.72;2197629;40;20046;-80
2021/07/24 05:30:56;;;;;;;16.52;12.40;;;;;;;20.08;67.16;99258.59;2197616;40;20050;-80
2021/07/24 05:32:27;;;;;;;16.25;11.82;;;;;;;20.12;66.72;99247.31;2197630;40;20115;-80
2021/07/24 05:33:59;;;;;;;14.23;11.15;;;;;;;20.15;66.69;99246.84;2197202;40;20043;-82
2021/07/24 05:35:31;;;;;;;19.38;12.73;;;;;;;20.17;66.64;99263.72;2199807;40;20054;-81
2021/07/24 05:37:03;;;;;;;17.85;12.20;;;;;;;20.15;66.44;99276.69;2200596;40;20054;-80
2021/07/24 05:38:35;;;;;;;16.17;12.95;;;;;;;20.09;66.59;99287.38;2200882;40;20430;-80
2021/07/24 05:40:25;;;;;;;14.38;11.82;;;;;;;20.07;66.45;99284.06;2195831;40;20406;-79
2021/07/24 05:41:56;;;;;;;14.70;10.52;;;;;;;20.12;66.62;99275.25;2196909;40;20041;-79
2021/07/24 05:43:28;;;;;;;18.95;12.23;;;;;;;20.23;66.40;99270.94;2195158;40;20054;-80
2021/07/24 05:45:01;;;;;;;16.55;11.77;;;;;;;20.29;66.05;99267.34;2196324;40;20051;-80
2021/07/24 05:46:33;;;;;;;16.65;12.43;;;;;;;20.36;65.66;99268.06;2200630;40;20621;-80
2021/07/24 05:48:05;;;;;;;15.35;12.07;;;;;;;20.40;65.68;99265.72;2201822;40;20044;-79
2021/07/24 05:49:37;;;;;;;17.77;12.32;;;;;;;20.49;65.42;99258.13;2196110;40;20491;-79
2021/07/24 05:51:08;;;;;;;18.20;12.45;;;;;;;20.51;65.09;99261.41;2195649;40;20102;-80
2021/07/24 05:52:40;;;;;;;17.23;12.90;;;;;;;20.50;65.22;99259.78;2197573;40;20315;-80
2021/07/24 05:54:11;;;;;;;14.70;12.05;;;;;;;20.49;65.54;99269.78;2332135;23;20280;-80
2021/07/24 05:55:43;;;;;;;15.60;10.85;;;;;;;20.57;65.36;99265.94;2202532;40;20034;-80
2021/07/24 05:57:15;;;;;;;17.17;12.45;;;;;;;20.65;65.10;99254.75;2202928;40;20129;-79
2021/07/24 05:58:47;;;;;;;23.02;14.65;;;;;;;20.61;65.25;99258.97;2203113;40;20042;-81
2021/07/24 06:00:20;;;;;;;20.50;13.90;;;;;;;20.54;65.32;99255.53;2202701;40;20038;-79
2021/07/24 06:01:52;;;;;;;15.45;11.70;;;;;;;20.52;65.27;99263.91;2201927;40;20061;-80
2021/07/24 06:03:23;;;;;;;14.55;10.38;;;;;;;20.64;65.39;99255.81;2201094;40;20066;-79
2021/07/24 06:04:55;;;;;;;16.40;12.07;;;;;;;20.78;64.99;99261.91;2196373;40;20031;-81
2021/07/24 06:06:26;;;;;;;16.42;12.05;;;;;;;20.90;64.66;99270.09;2196186;40;20122;-83
2021/07/24 06:07:58;;;;;;;16.98;12.70;;;;;;;20.92;64.43;99273.41;2197381;40;20571;-82
2021/07/24 06:09:29;;;;;;;20.70;13.88;;;;;;;20.97;64.09;99276.25;2196265;40;20051;-79
2021/07/24 06:11:03;;;;;;;18.95;13.50;;;;;;;20.96;64.21;99284.63;2196444;40;20062;-82
2021/07/24 06:12:35;;;;;;;21.85;12.85;;;;;;;20.89;64.26;99301.03;2195611;40;20063;-77
2021/07/24 06:14:06;;;;;;;18.38;11.77;;;;;;;20.82;64.38;99293.00;2195029;40;20583;-77
2021/07/24 06:15:43;;;;;;;13.48;10.48;;;;;;;20.88;64.30;99293.94;2194611;40;20108;-77
2021/07/24 06:17:15;;;;;;;15.00;12.48;;;;;;;20.91;64.17;99288.03;2193559;40;20066;-77
2021/07/24 06:18:46;;;;;;;16.48;12.00;;;;;;;20.85;64.61;99297.94;2194299;40;20051;-78
2021/07/24 06:20:19;;;;;;;18.55;11.77;;;;;;;20.88;64.44;99300.19;2193858;40;20071;-77
2021/07/24 06:21:51;;;;;;;14.68;10.85;;;;;;;21.00;64.14;99292.09;2194094;40;20031;-78
2021/07/24 06:23:23;;;;;;;19.05;13.60;;;;;;;21.06;63.76;99303.09;2193764;40;20031;-78
2021/07/24 06:24:55;;;;;;;17.23;12.55;;;;;;;21.08;63.69;99290.94;2193418;40;20142;-77
2021/07/24 06:26:26;;;;;;;33.55;15.00;;;;;;;21.07;64.05;99291.16;2196384;40;20042;-77
2021/07/24 06:27:58;;;;;;;24.45;15.57;;;;;;;20.99;63.99;99301.28;2203429;40;20035;-78
2021/07/24 06:29:30;;;;;;;20.65;13.57;;;;;;;20.94;64.08;99309.31;2207842;40;20046;-77
2021/07/24 06:31:03;;;;;;;17.05;12.30;;;;;;;21.01;63.99;99310.03;2195409;40;20030;-77
2021/07/24 06:32:35;;;;;;;18.63;12.30;;;;;;;21.04;63.60;99309.59;2195889;40;20041;-77
2021/07/24 06:34:07;;;;;;;20.70;12.75;;;;;;;21.05;63.80;99307.69;2194560;40;20051;-77
2021/07/24 06:35:39;;;;;;;17.85;12.13;;;;;;;21.06;63.78;99313.97;2195154;40;20054;-78
2021/07/24 06:37:11;;;;;;;21.33;12.35;;;;;;;21.12;63.53;99332.06;2195598;40;20369;-79
2021/07/24 06:38:43;;;;;;;18.85;13.10;;;;;;;21.13;63.40;99334.53;2195275;40;20049;-77
2021/07/24 06:40:14;;;;;;;19.95;13.23;;;;;;;21.07;63.62;99340.06;2196259;40;20134;-80
2021/07/24 06:41:46;;;;;;;20.48;13.18;;;;;;;20.97;64.05;99352.31;2195664;40;20616;-78
2021/07/24 06:43:17;;;;;;;21.40;14.43;;;;;;;20.91;64.67;99352.41;2195903;40;20515;-80
2021/07/24 06:44:52;;;;;;;16.85;11.48;;;;;;;20.88;64.49;99354.53;2196595;40;20033;-79
2021/07/24 06:46:26;;;;;;;18.25;12.25;;;;;;;20.94;64.47;99352.78;2199711;40;20051;-78
2021/07/24 06:47:58;;;;;;;15.10;12.05;;;;;;;20.88;64.72;99359.97;2195859;40;20034;-80
2021/07/24 06:49:30;;;;;;;20.00;13.60;;;;;;;20.85;64.96;99365.03;2195550;40;20154;-78
2021/07/24 06:51:01;;;;;;;17.35;13.18;;;;;;;20.81;65.84;99367.38;2197881;40;20395;-77
2021/07/24 06:52:33;;;;;;;17.92;12.18;;;;;;;20.75;66.10;99359.31;2195038;40;20118;-78
2021/07/24 06:54:05;;;;;;;21.23;14.32;;;;;;;20.78;66.37;99367.81;2195535;40;20043;-77
2021/07/24 06:55:36;;;;;;;21.75;13.65;;;;;;;20.78;66.52;99367.00;2194946;40;20038;-77
2021/07/24 06:57:08;;;;;;;18.88;13.13;;;;;;;20.76;66.82;99366.41;2195121;40;20042;-77
2021/07/24 06:58:39;;;;;;;16.33;13.00;;;;;;;20.76;66.80;99356.34;2194309;40;20140;-79
2021/07/24 07:00:14;;;;;;;14.63;11.75;;;;;;;20.81;66.65;99358.38;2196030;40;20399;-78
2021/07/24 07:01:47;;;;;;;14.57;11.25;;;;;;;20.84;66.64;99357.94;2194904;40;20396;-77
2021/07/24 07:03:18;;;;;;;16.38;11.68;;;;;;;20.80;66.89;99354.00;2194454;40;20125;-77
2021/07/24 07:04:50;;;;;;;18.40;12.05;;;;;;;20.77;66.84;99355.28;2196183;40;20054;-83
2021/07/24 07:06:21;;;;;;;23.13;14.15;;;;;;;20.79;66.70;99349.63;2198535;40;20030;-78
2021/07/24 07:07:53;;;;;;;14.95;11.65;;;;;;;20.78;66.84;99353.44;2196202;40;20046;-80